createdAt,value
2018-12-31T00:02:08.858Z,8.79
2018-12-31T00:05:14.450Z,8.53
2018-12-31T00:08:20.046Z,8.54
2018-12-31T00:11:25.682Z,8.48
2018-12-31T00:14:31.308Z,8.57
2018-12-31T00:17:36.926Z,8.57
2018-12-31T00:20:42.545Z,8.49
2018-12-31T00:23:48.217Z,8.55
2018-12-31T00:26:53.949Z,8.69
2018-12-31T00:29:59.580Z,8.61
2018-12-31T00:33:05.261Z,8.60
2018-12-31T00:36:10.838Z,8.46
2018-12-31T00:39:16.428Z,8.50
2018-12-31T00:42:23.041Z,8.43
2018-12-31T00:45:28.663Z,8.30
2018-12-31T00:48:34.324Z,8.26
2018-12-31T00:51:39.976Z,8.29
2018-12-31T00:54:45.608Z,8.28
2018-12-31T00:57:51.241Z,8.32
2018-12-31T01:00:56.865Z,8.29
2018-12-31T01:04:02.501Z,8.37
2018-12-31T01:07:08.145Z,8.45
2018-12-31T01:10:14.115Z,8.53
2018-12-31T01:13:19.753Z,8.65
2018-12-31T01:16:25.373Z,8.33
2018-12-31T01:19:30.970Z,8.35
2018-12-31T01:22:36.625Z,8.50
2018-12-31T01:25:43.260Z,8.57
2018-12-31T01:28:48.997Z,8.50
2018-12-31T01:31:54.617Z,8.32
2018-12-31T01:35:00.263Z,8.37
2018-12-31T01:38:05.920Z,8.58
2018-12-31T01:41:11.537Z,8.69
2018-12-31T01:44:17.330Z,8.48
2018-12-31T01:47:22.999Z,8.57
2018-12-31T01:50:28.695Z,8.29
2018-12-31T01:53:34.308Z,8.37
2018-12-31T01:56:40.020Z,8.38
2018-12-31T01:59:45.616Z,8.24
2018-12-31T02:02:51.242Z,8.16
2018-12-31T02:05:57.879Z,7.85
2018-12-31T02:09:04.095Z,7.69
2018-12-31T02:12:09.750Z,7.84
2018-12-31T02:15:15.386Z,7.98
2018-12-31T02:18:21.039Z,8.02
2018-12-31T02:21:26.669Z,8.21
2018-12-31T02:24:32.293Z,8.16
2018-12-31T02:27:37.877Z,7.93
2018-12-31T02:30:43.560Z,8.27
2018-12-31T02:33:49.173Z,8.39
2018-12-31T02:36:54.798Z,8.33
2018-12-31T02:40:00.445Z,8.37
2018-12-31T02:43:06.158Z,8.25
2018-12-31T02:46:11.753Z,8.38
2018-12-31T02:49:17.350Z,8.21
2018-12-31T02:52:22.981Z,7.65
2018-12-31T02:55:28.605Z,7.92
2018-12-31T02:58:34.294Z,7.09
2018-12-31T03:01:39.892Z,7.49
2018-12-31T03:04:45.562Z,7.53
2018-12-31T03:07:51.393Z,7.62
2018-12-31T03:10:56.993Z,7.81
2018-12-31T03:14:02.685Z,8.02
2018-12-31T03:17:08.317Z,7.77
2018-12-31T03:20:13.983Z,7.84
2018-12-31T03:23:19.609Z,7.50
2018-12-31T03:26:25.244Z,7.60
2018-12-31T03:29:30.932Z,7.66
2018-12-31T03:32:36.604Z,7.73
2018-12-31T03:35:42.230Z,7.64
2018-12-31T03:38:47.902Z,7.52
2018-12-31T03:41:53.536Z,7.44
2018-12-31T03:44:59.174Z,7.28
2018-12-31T03:48:04.767Z,7.46
2018-12-31T03:51:10.488Z,7.54
2018-12-31T03:54:16.118Z,7.52
2018-12-31T03:57:21.818Z,7.62
2018-12-31T04:00:27.455Z,7.56
2018-12-31T04:03:33.083Z,7.76
2018-12-31T04:06:38.756Z,7.72
2018-12-31T04:09:44.430Z,8.02
2018-12-31T04:12:50.063Z,8.17
2018-12-31T04:15:55.691Z,7.95
2018-12-31T04:19:01.295Z,8.11
2018-12-31T04:22:06.921Z,8.07
2018-12-31T04:25:12.587Z,8.26
2018-12-31T04:28:18.244Z,8.22
2018-12-31T04:31:23.888Z,8.30
2018-12-31T04:34:29.505Z,8.29
2018-12-31T04:37:35.101Z,8.34
2018-12-31T04:40:40.723Z,8.31
2018-12-31T04:43:46.326Z,8.20
2018-12-31T04:46:51.931Z,8.17
2018-12-31T04:49:57.560Z,8.19
2018-12-31T04:53:03.181Z,8.26
2018-12-31T04:56:08.859Z,8.16
2018-12-31T04:59:14.487Z,8.13
2018-12-31T05:02:20.147Z,8.07
2018-12-31T05:05:25.829Z,8.18
2018-12-31T05:08:31.441Z,8.25
2018-12-31T05:11:37.067Z,8.18
2018-12-31T05:14:42.727Z,8.08
2018-12-31T05:17:48.353Z,8.22
2018-12-31T05:20:53.956Z,8.20
2018-12-31T05:23:59.575Z,8.10
2018-12-31T05:27:05.211Z,7.98
2018-12-31T05:30:10.836Z,7.99
2018-12-31T05:33:16.428Z,8.13
2018-12-31T05:36:22.057Z,7.90
2018-12-31T05:39:27.654Z,8.01
2018-12-31T05:42:33.234Z,7.96
2018-12-31T05:45:38.870Z,8.03
2018-12-31T05:48:44.460Z,7.87
2018-12-31T05:51:50.086Z,7.80
2018-12-31T05:54:55.697Z,7.73
2018-12-31T05:58:01.339Z,7.65
2018-12-31T06:01:06.968Z,7.44
2018-12-31T06:04:12.547Z,7.21
2018-12-31T06:07:18.138Z,7.67
2018-12-31T06:10:23.768Z,7.09
2018-12-31T06:13:29.387Z,7.11
2018-12-31T06:16:35.038Z,7.15
2018-12-31T06:19:40.656Z,7.37
2018-12-31T06:22:46.347Z,7.56
2018-12-31T06:25:52.015Z,7.64
2018-12-31T06:28:57.635Z,7.70
2018-12-31T06:32:03.271Z,7.69
2018-12-31T06:35:08.875Z,7.39
2018-12-31T06:38:14.522Z,7.54
2018-12-31T06:41:20.111Z,7.46
2018-12-31T06:44:25.699Z,7.42
2018-12-31T06:47:31.311Z,7.44
2018-12-31T06:50:36.944Z,7.68
2018-12-31T06:53:42.552Z,7.80
2018-12-31T06:56:48.197Z,7.96
2018-12-31T06:59:54.029Z,7.90
2018-12-31T07:02:59.680Z,8.12
2018-12-31T07:06:05.316Z,8.13
2018-12-31T07:09:10.906Z,8.29
2018-12-31T07:12:16.550Z,8.44
2018-12-31T07:15:22.192Z,8.75
2018-12-31T07:18:27.822Z,8.85
2018-12-31T07:21:33.449Z,8.51
2018-12-31T07:24:39.113Z,8.57
2018-12-31T07:27:44.794Z,8.88
2018-12-31T07:30:50.422Z,9.07
2018-12-31T07:33:56.064Z,8.83
2018-12-31T07:37:01.703Z,8.93
2018-12-31T07:40:07.438Z,8.86
2018-12-31T07:43:13.197Z,8.98
2018-12-31T07:46:18.889Z,8.88
2018-12-31T07:49:24.512Z,9.23
2018-12-31T07:52:30.151Z,9.45
2018-12-31T07:55:37.118Z,9.50
2018-12-31T07:58:42.754Z,9.57
2018-12-31T08:01:49.311Z,9.61
2018-12-31T08:04:54.963Z,9.46
2018-12-31T08:08:00.600Z,9.63
2018-12-31T08:11:06.199Z,9.58
2018-12-31T08:14:11.826Z,9.62
2018-12-31T08:17:17.420Z,9.52
2018-12-31T08:20:23.019Z,9.90
2018-12-31T08:23:28.657Z,10.20
2018-12-31T08:26:34.250Z,10.46
2018-12-31T08:29:39.871Z,10.63
2018-12-31T08:32:45.523Z,10.91
2018-12-31T08:35:51.164Z,11.34
2018-12-31T08:38:56.800Z,11.63
2018-12-31T08:42:02.405Z,12.52
2018-12-31T08:45:08.116Z,12.63
2018-12-31T08:48:14.750Z,12.55
2018-12-31T08:51:21.387Z,12.39
2018-12-31T08:54:27.054Z,12.65
2018-12-31T08:57:32.693Z,13.07
2018-12-31T09:00:38.375Z,13.09
2018-12-31T09:03:44.086Z,13.66
2018-12-31T09:06:49.711Z,13.91
2018-12-31T09:09:55.364Z,14.19
2018-12-31T09:13:00.977Z,14.26
2018-12-31T09:16:06.607Z,14.53
2018-12-31T09:19:12.236Z,14.35
2018-12-31T09:22:17.847Z,13.52
2018-12-31T09:25:23.457Z,13.02
2018-12-31T09:28:29.109Z,13.70
2018-12-31T09:31:34.707Z,14.14
2018-12-31T09:34:40.357Z,14.38
2018-12-31T09:37:46.020Z,14.47
2018-12-31T09:40:51.711Z,14.52
2018-12-31T09:43:57.344Z,14.80
2018-12-31T09:47:02.927Z,14.84
2018-12-31T09:50:08.572Z,14.68
2018-12-31T09:53:14.186Z,14.85
2018-12-31T09:56:19.818Z,15.20
2018-12-31T09:59:25.479Z,15.40
2018-12-31T10:02:31.145Z,15.08
2018-12-31T10:05:36.816Z,14.15
2018-12-31T10:08:49.198Z,13.89
2018-12-31T10:11:49.844Z,14.69
2018-12-31T10:14:55.480Z,14.54
2018-12-31T10:18:01.127Z,15.37
2018-12-31T10:21:06.793Z,15.46
2018-12-31T10:24:12.454Z,15.16
2018-12-31T10:27:18.098Z,14.91
2018-12-31T10:30:23.742Z,14.52
2018-12-31T10:33:29.353Z,14.24
2018-12-31T10:36:34.984Z,13.89
2018-12-31T10:39:40.581Z,13.43
2018-12-31T10:42:46.168Z,13.44
2018-12-31T10:45:51.812Z,13.42
2018-12-31T10:48:57.458Z,13.27
2018-12-31T10:52:03.129Z,13.19
2018-12-31T10:55:08.766Z,13.18
2018-12-31T10:58:14.463Z,13.09
2018-12-31T11:01:20.121Z,12.90
2018-12-31T11:04:25.760Z,13.03
2018-12-31T11:07:31.360Z,12.92
2018-12-31T11:10:37.088Z,12.91
2018-12-31T11:13:42.684Z,12.61
2018-12-31T11:16:48.326Z,12.60
2018-12-31T11:19:54.008Z,12.56
2018-12-31T11:22:59.695Z,12.55
2018-12-31T11:26:05.383Z,12.52
2018-12-31T11:29:11.023Z,12.72
2018-12-31T11:32:16.685Z,12.73
2018-12-31T11:35:22.324Z,12.68
2018-12-31T11:38:27.936Z,12.63
2018-12-31T11:41:33.541Z,12.54
2018-12-31T11:44:39.159Z,12.27
2018-12-31T11:47:44.796Z,12.28
2018-12-31T11:50:50.428Z,12.33
2018-12-31T11:53:56.099Z,12.20
2018-12-31T11:57:01.703Z,11.78
2018-12-31T12:00:09.270Z,11.87
2018-12-31T12:03:15.101Z,12.10
2018-12-31T12:06:20.753Z,12.08
2018-12-31T12:09:27.227Z,11.86
2018-12-31T12:12:32.872Z,12.01
2018-12-31T12:15:38.580Z,12.04
2018-12-31T12:18:44.390Z,12.15
2018-12-31T12:21:50.097Z,12.24
2018-12-31T12:24:55.718Z,12.25
2018-12-31T12:28:01.338Z,11.97
2018-12-31T12:31:07.078Z,12.07
2018-12-31T12:34:12.754Z,11.82
2018-12-31T12:37:18.402Z,11.70
2018-12-31T12:40:24.057Z,11.75
2018-12-31T12:43:29.744Z,10.46
2018-12-31T12:46:35.420Z,10.67
2018-12-31T12:49:41.044Z,10.70
2018-12-31T12:52:46.708Z,10.69
2018-12-31T12:55:52.729Z,11.08
2018-12-31T12:58:58.448Z,11.45
2018-12-31T13:02:04.090Z,11.61
2018-12-31T13:05:09.698Z,11.79
2018-12-31T13:08:15.499Z,11.82
2018-12-31T13:11:21.215Z,11.66
2018-12-31T13:14:26.899Z,11.85
2018-12-31T13:17:32.534Z,11.76
2018-12-31T13:20:38.598Z,11.86
2018-12-31T13:23:44.253Z,11.89
2018-12-31T13:26:49.906Z,11.90
2018-12-31T13:29:55.549Z,12.00
2018-12-31T13:33:01.560Z,11.86
2018-12-31T13:36:08.000Z,11.92
2018-12-31T13:39:13.666Z,11.66
2018-12-31T13:42:20.439Z,11.55
2018-12-31T13:45:26.257Z,11.46
2018-12-31T13:48:31.932Z,11.47
2018-12-31T13:51:37.574Z,11.41
2018-12-31T13:54:43.255Z,11.17
2018-12-31T13:57:48.948Z,11.47
2018-12-31T14:00:54.597Z,11.49
2018-12-31T14:04:00.337Z,11.32
2018-12-31T14:07:06.113Z,11.07
2018-12-31T14:10:11.862Z,11.04
2018-12-31T14:13:17.463Z,11.02
2018-12-31T14:16:23.130Z,11.05
2018-12-31T14:19:28.774Z,11.10
2018-12-31T14:22:34.380Z,11.03
2018-12-31T14:25:39.998Z,10.88
2018-12-31T14:28:45.637Z,10.82
2018-12-31T14:31:51.258Z,10.74
2018-12-31T14:34:56.888Z,10.70
2018-12-31T14:38:02.527Z,10.58
2018-12-31T14:41:08.202Z,10.54
2018-12-31T14:44:13.874Z,10.55
2018-12-31T14:47:19.540Z,10.53
2018-12-31T14:50:25.228Z,10.52
2018-12-31T14:53:30.878Z,10.54
2018-12-31T14:56:36.513Z,10.39
2018-12-31T14:59:42.149Z,10.35
2018-12-31T15:02:47.754Z,10.22
2018-12-31T15:05:53.421Z,10.39
2018-12-31T15:08:59.235Z,10.39
2018-12-31T15:12:04.886Z,10.25
2018-12-31T15:15:10.620Z,10.25
2018-12-31T15:18:16.254Z,10.33
2018-12-31T15:21:22.264Z,10.24
2018-12-31T15:24:27.893Z,10.28
2018-12-31T15:27:33.545Z,10.21
2018-12-31T15:30:39.217Z,9.98
2018-12-31T15:33:45.249Z,10.17
2018-12-31T15:36:50.947Z,10.06
2018-12-31T15:39:56.623Z,9.85
2018-12-31T15:43:02.771Z,9.98
2018-12-31T15:46:08.407Z,9.95
2018-12-31T15:49:13.993Z,9.90
2018-12-31T15:52:19.636Z,9.89
2018-12-31T15:55:25.229Z,10.00
2018-12-31T15:58:30.822Z,9.98
2018-12-31T16:01:36.524Z,9.97
2018-12-31T16:04:42.153Z,9.85
2018-12-31T16:07:47.783Z,9.87
2018-12-31T16:10:53.414Z,9.82
2018-12-31T16:13:59.178Z,9.80
2018-12-31T16:17:04.869Z,9.78
2018-12-31T16:20:10.627Z,9.83
2018-12-31T16:23:16.288Z,9.73
2018-12-31T16:26:21.928Z,9.70
2018-12-31T16:29:27.538Z,9.60
2018-12-31T16:32:33.528Z,9.82
2018-12-31T16:35:39.152Z,9.67
2018-12-31T16:38:44.850Z,9.54
2018-12-31T16:41:50.523Z,9.72
2018-12-31T16:44:56.250Z,9.61
2018-12-31T16:48:01.915Z,9.46
2018-12-31T16:51:07.545Z,9.49
2018-12-31T16:54:13.198Z,9.53
2018-12-31T16:57:18.923Z,9.55
2018-12-31T17:00:24.602Z,9.52
2018-12-31T17:03:30.241Z,9.36
2018-12-31T17:06:35.878Z,9.41
2018-12-31T17:09:41.496Z,9.32
2018-12-31T17:12:47.145Z,9.37
2018-12-31T17:15:53.855Z,9.36
2018-12-31T17:18:59.719Z,9.38
2018-12-31T17:22:05.398Z,9.38
2018-12-31T17:25:11.053Z,9.45
2018-12-31T17:28:17.896Z,9.51
2018-12-31T17:31:23.836Z,9.44
2018-12-31T17:34:29.510Z,9.48
2018-12-31T17:37:35.196Z,9.29
2018-12-31T17:40:40.795Z,9.28
2018-12-31T17:43:46.787Z,9.10
2018-12-31T17:46:52.424Z,9.30
2018-12-31T17:49:58.056Z,9.17
2018-12-31T17:53:03.700Z,9.20
2018-12-31T17:56:09.359Z,9.27
2018-12-31T17:59:15.040Z,9.13
2018-12-31T18:02:20.745Z,9.04
2018-12-31T18:05:26.390Z,9.09
2018-12-31T18:08:32.162Z,9.25
2018-12-31T18:11:37.783Z,8.91
2018-12-31T18:14:43.401Z,8.84
2018-12-31T18:17:48.987Z,8.63
2018-12-31T18:20:54.603Z,8.50
2018-12-31T18:24:00.234Z,8.25
2018-12-31T18:27:05.864Z,8.38
2018-12-31T18:30:11.878Z,8.19
2018-12-31T18:33:17.507Z,8.21
2018-12-31T18:36:23.105Z,8.35
2018-12-31T18:39:28.700Z,8.56
2018-12-31T18:42:34.783Z,8.74
2018-12-31T18:45:40.434Z,8.60
2018-12-31T18:48:46.201Z,8.61
2018-12-31T18:51:51.845Z,8.75
2018-12-31T18:54:57.505Z,8.38
2018-12-31T18:58:03.181Z,8.38
2018-12-31T19:01:08.791Z,8.24
2018-12-31T19:04:14.394Z,8.39
2018-12-31T19:07:20.078Z,8.48
2018-12-31T19:10:25.725Z,8.13
2018-12-31T19:13:31.595Z,8.15
2018-12-31T19:16:37.341Z,8.03
2018-12-31T19:19:43.043Z,7.92
2018-12-31T19:22:48.690Z,8.02
2018-12-31T19:25:54.330Z,7.90
2018-12-31T19:29:00.388Z,8.01
2018-12-31T19:32:06.039Z,7.97
2018-12-31T19:35:11.705Z,8.16
2018-12-31T19:38:17.317Z,8.07
2018-12-31T19:41:22.960Z,7.85
2018-12-31T19:44:28.627Z,8.04
2018-12-31T19:47:34.221Z,7.71
2018-12-31T19:50:39.855Z,7.75
2018-12-31T19:53:45.496Z,7.84
2018-12-31T19:56:51.223Z,7.92
2018-12-31T19:59:56.905Z,8.01
2018-12-31T20:03:02.587Z,7.80
2018-12-31T20:06:08.237Z,7.70
2018-12-31T20:09:13.908Z,7.82
2018-12-31T20:12:19.535Z,7.63
2018-12-31T20:15:25.466Z,7.57
2018-12-31T20:18:31.083Z,7.60
2018-12-31T20:21:36.734Z,7.68
2018-12-31T20:24:42.413Z,7.68
2018-12-31T20:27:48.086Z,7.49
2018-12-31T20:30:53.746Z,7.77
2018-12-31T20:33:59.403Z,7.69
2018-12-31T20:37:05.022Z,7.77
2018-12-31T20:40:10.689Z,7.73
2018-12-31T20:43:16.354Z,7.68
2018-12-31T20:46:22.089Z,7.37
2018-12-31T20:49:28.335Z,7.63
2018-12-31T20:52:33.993Z,7.81
2018-12-31T20:55:39.618Z,7.82
2018-12-31T20:58:45.263Z,7.67
2018-12-31T21:01:50.883Z,8.04
2018-12-31T21:04:56.523Z,8.06
2018-12-31T21:08:02.123Z,8.09
2018-12-31T21:11:08.148Z,8.06
2018-12-31T21:14:13.769Z,7.88
2018-12-31T21:17:19.429Z,7.67
2018-12-31T21:20:25.090Z,7.90
2018-12-31T21:23:30.716Z,7.91
2018-12-31T21:26:36.376Z,7.99
2018-12-31T21:29:42.017Z,8.02
2018-12-31T21:32:47.646Z,7.89
2018-12-31T21:35:53.241Z,7.95
2018-12-31T21:38:58.856Z,8.13
2018-12-31T21:42:04.545Z,8.06
2018-12-31T21:45:10.457Z,8.17
2018-12-31T21:48:17.116Z,8.20
2018-12-31T21:51:22.776Z,8.03
2018-12-31T21:54:28.414Z,8.09
2018-12-31T21:57:34.434Z,8.36
2018-12-31T22:00:40.087Z,8.35
2018-12-31T22:03:45.665Z,8.28
2018-12-31T22:06:51.294Z,7.93
2018-12-31T22:09:56.907Z,7.96
2018-12-31T22:13:02.561Z,7.92
2018-12-31T22:16:08.224Z,8.06
2018-12-31T22:19:13.820Z,7.65
2018-12-31T22:22:19.422Z,7.81
2018-12-31T22:25:25.029Z,7.91
2018-12-31T22:28:30.678Z,7.48
2018-12-31T22:31:36.594Z,7.79
2018-12-31T22:34:42.327Z,7.86
2018-12-31T22:37:47.981Z,7.84
2018-12-31T22:40:53.632Z,7.77
2018-12-31T22:43:59.274Z,7.95
2018-12-31T22:47:04.966Z,7.84
2018-12-31T22:50:11.959Z,7.89
2018-12-31T22:53:17.582Z,8.04
2018-12-31T22:56:23.195Z,7.67
2018-12-31T22:59:28.900Z,7.70
2018-12-31T23:02:34.580Z,7.67
2018-12-31T23:05:40.279Z,7.55
2018-12-31T23:08:45.994Z,7.55
2018-12-31T23:11:51.648Z,7.35
2018-12-31T23:14:58.106Z,7.37
2018-12-31T23:18:03.741Z,7.38
2018-12-31T23:21:09.351Z,7.22
2018-12-31T23:24:14.959Z,7.11
2018-12-31T23:27:20.644Z,7.30
2018-12-31T23:30:26.510Z,7.23
2018-12-31T23:33:32.153Z,7.18
2018-12-31T23:36:37.777Z,7.12
2018-12-31T23:39:43.433Z,7.00
2018-12-31T23:42:49.371Z,7.04
2018-12-31T23:45:55.006Z,6.92
2018-12-31T23:49:00.660Z,6.85
2018-12-31T23:52:06.300Z,6.85
2018-12-31T23:55:11.918Z,6.63
2018-12-31T23:58:17.606Z,6.80
